Terminal Aerodrome Forecast
Issued by NWS

Home | Current Version | Previous Version | Text Only | Print | Product List | Glossary On
Versions: 1 2 3 4 5 6 7 8 9 10 11 12 13 14 15 16 17
000
FTUS45 KPSR 311735
TAFIWA
TAF
KIWA 311735Z 3118/0118 12007KT P6SM FEW120
      TEMPO 3121/0101 VRB06KT
     FM010100 14020G30KT 6SM BLDU VCTS SCT110CB BKN200
      TEMPO 0101/0103 VRB20G30KT 4SM BLDU
     FM010500 12009KT P6SM VCSH SCT110 BKN250=

USA.gov is the U.S. government's official web portal to all federal, state and local government web resources and services.